createdAt,value
2018-09-21T00:00:55.356Z,65.67
2018-09-21T00:03:25.421Z,64.57
2018-09-21T00:05:56.102Z,65.62
2018-09-21T00:08:27.254Z,64.81
2018-09-21T00:10:56.880Z,65.29
2018-09-21T00:13:27.105Z,64.75
2018-09-21T00:15:57.156Z,65.50
2018-09-21T00:18:27.413Z,65.36
2018-09-21T00:20:57.075Z,65.24
2018-09-21T00:23:27.184Z,65.12
2018-09-21T00:25:56.861Z,66.04
2018-09-21T00:28:26.585Z,66.00
2018-09-21T00:30:56.321Z,66.05
2018-09-21T00:33:25.974Z,66.86
2018-09-21T00:35:55.598Z,66.30
2018-09-21T00:38:25.613Z,66.09
2018-09-21T00:40:55.258Z,66.92
2018-09-21T00:43:25.879Z,67.53
2018-09-21T00:45:56.430Z,67.66
2018-09-21T00:48:26.396Z,66.55
2018-09-21T00:50:56.445Z,66.68
2018-09-21T00:53:29.022Z,66.55
2018-09-21T00:55:59.261Z,67.11
2018-09-21T00:58:29.470Z,67.28
2018-09-21T01:00:59.138Z,68.11
2018-09-21T01:03:28.990Z,67.20
2018-09-21T01:05:58.654Z,68.30
2018-09-21T01:08:28.385Z,68.20
2018-09-21T01:10:59.292Z,67.95
2018-09-21T01:13:29.358Z,67.70
2018-09-21T01:15:59.009Z,68.15
2018-09-21T01:18:29.571Z,67.55
2018-09-21T01:20:59.712Z,67.17
2018-09-21T01:23:30.096Z,68.43
2018-09-21T01:25:59.883Z,68.53
2018-09-21T01:28:29.637Z,67.75
2018-09-21T01:30:59.786Z,67.71
2018-09-21T01:33:30.420Z,67.96
2018-09-21T01:36:00.316Z,67.74
2018-09-21T01:38:30.849Z,68.31
2018-09-21T01:41:00.525Z,68.19
2018-09-21T01:43:31.283Z,67.56
2018-09-21T01:46:02.337Z,67.74
2018-09-21T01:48:31.950Z,67.48
2018-09-21T01:51:01.586Z,67.60
2018-09-21T01:53:31.270Z,68.31
2018-09-21T01:56:00.973Z,68.60
2018-09-21T01:58:30.644Z,68.56
2018-09-21T02:01:00.825Z,68.62
2018-09-21T02:03:30.499Z,68.64
2018-09-21T02:06:00.130Z,68.77
2018-09-21T02:08:29.833Z,67.81
2018-09-21T02:10:59.921Z,68.05
2018-09-21T02:13:29.726Z,67.58
2018-09-21T02:15:59.425Z,67.28
2018-09-21T02:18:29.842Z,66.70
2018-09-21T02:20:59.546Z,66.24
2018-09-21T02:23:29.239Z,65.59
2018-09-21T02:26:00.695Z,66.36
2018-09-21T02:28:31.482Z,65.19
2018-09-21T02:31:01.142Z,65.72
2018-09-21T02:33:31.412Z,64.49
2018-09-21T02:36:01.087Z,64.82
2018-09-21T02:38:30.746Z,65.13
2018-09-21T02:41:00.402Z,64.41
2018-09-21T02:43:30.541Z,63.96
2018-09-21T02:46:00.250Z,63.15
2018-09-21T02:48:30.857Z,62.98
2018-09-21T02:51:00.922Z,63.62
2018-09-21T02:53:31.109Z,63.85
2018-09-21T02:56:01.232Z,62.99
2018-09-21T02:58:32.019Z,63.12
2018-09-21T03:01:02.101Z,62.81
2018-09-21T03:03:31.700Z,64.16
2018-09-21T03:06:01.412Z,63.51
2018-09-21T03:08:31.060Z,63.25
2018-09-21T03:11:01.062Z,64.54
2018-09-21T03:13:30.742Z,64.55
2018-09-21T03:16:00.399Z,64.04
2018-09-21T03:18:30.099Z,65.27
2018-09-21T03:20:59.770Z,65.24
2018-09-21T03:23:29.452Z,65.15
2018-09-21T03:25:59.449Z,65.29
2018-09-21T03:28:29.894Z,65.42
2018-09-21T03:30:59.608Z,64.47
2018-09-21T03:33:29.263Z,65.14
2018-09-21T03:35:58.922Z,65.34
2018-09-21T03:38:29.137Z,64.16
2018-09-21T03:40:58.826Z,64.97
2018-09-21T03:43:28.870Z,64.86
2018-09-21T03:45:58.511Z,64.52
2018-09-21T03:48:28.197Z,64.09
2018-09-21T03:50:57.845Z,63.65
2018-09-21T03:53:28.142Z,63.35
2018-09-21T03:55:57.826Z,63.65
2018-09-21T03:58:29.079Z,63.48
2018-09-21T04:00:58.753Z,62.98
2018-09-21T04:03:28.525Z,63.20
2018-09-21T04:05:58.137Z,63.52
2018-09-21T04:08:27.827Z,64.06
2018-09-21T04:10:57.497Z,64.03
2018-09-21T04:13:29.953Z,63.67
2018-09-21T04:15:59.866Z,64.24
2018-09-21T04:18:29.582Z,64.21
2018-09-21T04:20:59.249Z,64.43
2018-09-21T04:23:29.990Z,64.20
2018-09-21T04:26:00.325Z,63.63
2018-09-21T04:28:31.243Z,63.74
2018-09-21T04:31:00.911Z,63.86
2018-09-21T04:33:30.550Z,64.12
2018-09-21T04:36:00.204Z,64.23
2018-09-21T04:38:30.456Z,63.94
2018-09-21T04:41:00.112Z,64.19
2018-09-21T04:43:30.121Z,65.16
2018-09-21T04:46:00.406Z,63.91
2018-09-21T04:48:30.894Z,64.19
2018-09-21T04:51:00.550Z,64.76
2018-09-21T04:53:30.210Z,63.96
2018-09-21T04:56:00.573Z,64.02
2018-09-21T04:58:33.664Z,63.96
2018-09-21T05:01:03.301Z,63.89
2018-09-21T05:03:35.962Z,64.07
2018-09-21T05:06:05.610Z,63.73
2018-09-21T05:08:35.237Z,63.58
2018-09-21T05:11:08.031Z,63.67
2018-09-21T05:13:39.057Z,63.67
2018-09-21T05:16:08.849Z,63.60
2018-09-21T05:18:39.448Z,63.44
2018-09-21T05:21:11.050Z,62.58
2018-09-21T05:23:40.944Z,63.11
2018-09-21T05:26:10.613Z,62.23
2018-09-21T05:28:43.518Z,61.95
2018-09-21T05:31:16.264Z,63.07
2018-09-21T05:33:45.950Z,62.63
2018-09-21T05:36:15.896Z,62.48
2018-09-21T05:38:46.526Z,61.96
2018-09-21T05:41:16.450Z,61.62
2018-09-21T05:43:46.263Z,61.45
2018-09-21T05:46:15.926Z,61.85
2018-09-21T05:48:45.596Z,61.71
2018-09-21T05:51:15.268Z,61.20
2018-09-21T05:53:45.191Z,61.47
2018-09-21T05:56:15.075Z,62.22
2018-09-21T05:58:45.064Z,61.69
2018-09-21T06:01:16.002Z,61.97
2018-09-21T06:03:46.415Z,61.32
2018-09-21T06:06:16.041Z,61.18
2018-09-21T06:08:45.673Z,61.14
2018-09-21T06:11:15.955Z,61.02
2018-09-21T06:13:46.164Z,61.65
2018-09-21T06:16:15.897Z,62.08
2018-09-21T06:18:45.677Z,61.47
2018-09-21T06:21:16.909Z,61.39
2018-09-21T06:23:48.421Z,60.69
2018-09-21T06:26:20.660Z,61.06
2018-09-21T06:28:50.330Z,60.21
2018-09-21T06:31:21.359Z,59.89
2018-09-21T06:33:51.462Z,60.10
2018-09-21T06:36:21.686Z,59.76
2018-09-21T06:38:51.597Z,58.10
2018-09-21T06:41:22.118Z,59.40
2018-09-21T06:43:52.322Z,58.06
2018-09-21T06:46:23.228Z,58.55
2018-09-21T06:48:52.877Z,57.45
2018-09-21T06:51:22.545Z,56.52
2018-09-21T06:53:52.231Z,56.38
2018-09-21T06:56:21.888Z,55.48
2018-09-21T06:58:52.713Z,55.79
2018-09-21T07:01:23.344Z,55.30
2018-09-21T07:03:53.055Z,54.87
2018-09-21T07:06:25.014Z,53.36
2018-09-21T07:08:54.873Z,53.68
2018-09-21T07:11:26.604Z,52.75
2018-09-21T07:13:58.647Z,51.68
2018-09-21T07:16:29.870Z,52.87
2018-09-21T07:19:01.238Z,51.70
2018-09-21T07:21:32.020Z,51.52
2018-09-21T07:24:01.756Z,50.13
2018-09-21T07:26:34.340Z,51.12
2018-09-21T07:29:05.548Z,51.02
2018-09-21T07:31:35.638Z,50.84
2018-09-21T07:34:05.947Z,50.74
2018-09-21T07:36:44.274Z,51.63
2018-09-21T07:39:17.985Z,51.06
2018-09-21T07:41:50.695Z,52.23
2018-09-21T07:44:27.984Z,51.13
2018-09-21T07:46:57.917Z,50.37
2018-09-21T07:49:27.636Z,50.98
2018-09-21T07:51:58.218Z,51.67
2018-09-21T07:54:29.021Z,50.65
2018-09-21T07:57:00.685Z,50.26
2018-09-21T07:59:32.646Z,51.63
2018-09-21T08:02:02.333Z,51.81
2018-09-21T08:04:35.481Z,51.14
2018-09-21T08:07:05.634Z,52.02
2018-09-21T08:09:37.002Z,52.48
2018-09-21T08:12:06.657Z,51.43
2018-09-21T08:14:36.905Z,51.55
2018-09-21T08:17:07.257Z,53.08
2018-09-21T08:19:42.289Z,52.72
2018-09-21T08:22:11.925Z,51.95
2018-09-21T08:24:44.045Z,52.30
2018-09-21T08:27:16.302Z,52.15
2018-09-21T08:29:48.638Z,51.03
2018-09-21T08:32:19.311Z,52.36
2018-09-21T08:34:49.061Z,51.98
2018-09-21T08:37:19.094Z,52.41
2018-09-21T08:39:51.865Z,52.01
2018-09-21T08:42:21.802Z,51.75
2018-09-21T08:44:55.500Z,51.58
2018-09-21T08:47:27.695Z,52.35
2018-09-21T08:49:57.372Z,50.82
2018-09-21T08:52:27.045Z,51.00
2018-09-21T08:54:57.296Z,49.93
2018-09-21T08:57:26.968Z,49.62
2018-09-21T08:59:57.134Z,49.70
2018-09-21T09:02:28.490Z,48.77
2018-09-21T09:05:00.541Z,48.93
2018-09-21T09:07:30.513Z,48.38
2018-09-21T09:10:00.164Z,50.10
2018-09-21T09:12:29.866Z,48.51
2018-09-21T09:15:04.511Z,47.32
2018-09-21T09:17:36.835Z,47.62
2018-09-21T09:20:09.389Z,47.23
2018-09-21T09:22:41.264Z,48.00
2018-09-21T09:25:17.208Z,47.45
2018-09-21T09:28:05.552Z,47.38
2018-09-21T09:30:36.590Z,48.31
2018-09-21T09:33:06.289Z,47.56
2018-09-21T09:35:41.839Z,47.31
2018-09-21T09:38:13.442Z,47.57
2018-09-21T09:40:43.205Z,46.92
2018-09-21T09:43:14.357Z,47.27
2018-09-21T09:45:48.210Z,46.16
2018-09-21T09:48:19.881Z,46.19
2018-09-21T09:50:50.593Z,45.99
2018-09-21T09:53:20.482Z,46.59
2018-09-21T09:55:51.311Z,45.32
2018-09-21T09:58:24.972Z,45.97
2018-09-21T10:00:58.319Z,46.88
2018-09-21T10:03:28.918Z,45.33
2018-09-21T10:05:58.670Z,45.55
2018-09-21T10:08:30.965Z,45.02
2018-09-21T10:11:01.058Z,45.75
2018-09-21T10:13:30.735Z,45.90
2018-09-21T10:16:02.325Z,45.45
2018-09-21T10:18:33.429Z,45.34
2018-09-21T10:21:03.987Z,45.68
2018-09-21T10:23:33.667Z,44.86
2018-09-21T10:26:04.422Z,45.65
2018-09-21T10:28:34.475Z,45.75
2018-09-21T10:31:04.367Z,46.12
2018-09-21T10:33:38.786Z,45.11
2018-09-21T10:36:11.562Z,45.62
2018-09-21T10:38:41.404Z,45.44
2018-09-21T10:41:13.669Z,44.82
2018-09-21T10:43:44.937Z,44.74
2018-09-21T10:46:16.394Z,45.66
2018-09-21T10:48:46.345Z,44.54
2018-09-21T10:51:16.122Z,42.70
2018-09-21T10:53:47.006Z,42.00
2018-09-21T10:56:17.937Z,43.90
2018-09-21T10:58:47.605Z,42.75
2018-09-21T11:01:18.364Z,43.65
2018-09-21T11:03:48.216Z,43.68
2018-09-21T11:06:18.388Z,42.08
2018-09-21T11:08:48.864Z,42.19
2018-09-21T11:11:21.985Z,41.73
2018-09-21T11:13:53.381Z,42.80
2018-09-21T11:16:23.069Z,42.99
2018-09-21T11:18:53.328Z,42.60
2018-09-21T11:21:25.291Z,42.97
2018-09-21T11:23:56.506Z,41.33
2018-09-21T11:26:26.526Z,40.29
2018-09-21T11:28:56.559Z,40.81
2018-09-21T11:31:27.559Z,40.11
2018-09-21T11:34:01.369Z,39.48
2018-09-21T11:36:32.143Z,39.98
2018-09-21T11:39:04.886Z,39.17
2018-09-21T11:41:34.550Z,39.17
2018-09-21T11:44:23.822Z,39.52
2018-09-21T11:46:56.689Z,38.28
2018-09-21T11:49:26.941Z,38.42
2018-09-21T11:51:58.562Z,39.62
2018-09-21T11:54:29.996Z,40.03
2018-09-21T11:57:01.659Z,39.69
2018-09-21T11:59:33.945Z,39.12
2018-09-21T12:02:05.857Z,39.21
2018-09-21T12:04:37.585Z,39.30
2018-09-21T12:07:07.246Z,39.11
2018-09-21T12:09:37.495Z,39.80
2018-09-21T12:12:09.850Z,40.24
2018-09-21T12:14:41.242Z,40.30
2018-09-21T12:17:13.125Z,40.03
2018-09-21T12:19:43.387Z,39.64
2018-09-21T12:22:14.919Z,39.99
2018-09-21T12:24:46.258Z,40.81
2018-09-21T12:27:22.129Z,39.99
2018-09-21T12:29:52.414Z,40.48
2018-09-21T12:32:24.486Z,40.67
2018-09-21T12:34:54.790Z,40.91
2018-09-21T12:37:26.125Z,41.03
2018-09-21T12:39:56.278Z,41.96
2018-09-21T12:45:07.290Z,43.00
2018-09-21T12:47:38.650Z,41.47
2018-09-21T12:50:08.650Z,42.55
2018-09-21T12:52:39.540Z,42.10
2018-09-21T12:55:10.076Z,42.86
2018-09-21T12:57:39.786Z,43.03
2018-09-21T13:00:11.447Z,43.33
2018-09-21T13:02:42.354Z,42.54
2018-09-21T13:05:12.337Z,43.28
2018-09-21T13:07:43.426Z,42.39
2018-09-21T13:10:14.446Z,43.20
2018-09-21T13:12:46.945Z,43.49
2018-09-21T13:15:17.481Z,43.47
2018-09-21T13:17:47.376Z,43.55
2018-09-21T13:20:17.288Z,42.79
2018-09-21T13:22:55.098Z,43.86
2018-09-21T13:25:24.717Z,44.21
2018-09-21T13:27:56.394Z,43.75
2018-09-21T13:30:35.391Z,44.18
2018-09-21T13:33:09.598Z,44.60
2018-09-21T13:35:40.221Z,44.00
2018-09-21T13:38:09.905Z,43.97
2018-09-21T13:40:39.546Z,43.71
2018-09-21T13:43:10.483Z,44.37
2018-09-21T13:45:43.997Z,43.17
2018-09-21T13:48:19.729Z,43.17
2018-09-21T13:50:49.399Z,42.87
2018-09-21T13:53:32.641Z,43.44
2018-09-21T13:56:09.077Z,42.12
2018-09-21T13:58:44.252Z,42.54
2018-09-21T14:01:28.396Z,43.21
2018-09-21T14:04:01.204Z,41.37
2018-09-21T14:06:41.122Z,40.14
2018-09-21T14:09:30.339Z,39.68
2018-09-21T14:12:10.433Z,39.16
2018-09-21T14:14:42.756Z,39.20
2018-09-21T14:17:24.811Z,38.55
2018-09-21T14:20:02.388Z,38.26
2018-09-21T14:27:04.567Z,38.54
2018-09-21T14:29:35.231Z,37.89
2018-09-21T14:32:05.761Z,38.12
2018-09-21T14:34:36.561Z,38.92
2018-09-21T14:37:06.744Z,37.18
2018-09-21T14:39:38.623Z,38.07
2018-09-21T14:42:10.184Z,37.45
2018-09-21T14:44:40.586Z,36.63
2018-09-21T14:47:12.452Z,36.13
2018-09-21T14:49:42.222Z,35.72
2018-09-21T14:52:13.639Z,35.76
2018-09-21T14:54:44.203Z,35.27
2018-09-21T14:57:13.965Z,35.88
2018-09-21T14:59:43.788Z,36.02
2018-09-21T15:02:15.498Z,37.15
2018-09-21T15:04:49.636Z,36.91
2018-09-21T15:07:20.302Z,37.45
2018-09-21T15:09:50.079Z,36.92
2018-09-21T15:12:20.991Z,37.33
2018-09-21T15:14:50.802Z,37.29
2018-09-21T15:17:36.619Z,37.59
2018-09-21T15:20:06.394Z,38.04
2018-09-21T15:22:36.994Z,37.07
2018-09-21T15:25:06.850Z,36.55
2018-09-21T15:27:38.613Z,36.32
2018-09-21T15:30:09.232Z,37.11
2018-09-21T15:32:42.057Z,35.73
2018-09-21T15:35:11.733Z,35.45
2018-09-21T15:37:43.410Z,35.59
2018-09-21T15:40:14.108Z,36.02
2018-09-21T15:42:45.652Z,36.86
2018-09-21T15:45:15.337Z,36.67
2018-09-21T15:47:46.321Z,43.74
2018-09-21T15:50:19.612Z,52.19
2018-09-21T15:52:49.849Z,58.84
2018-09-21T15:55:22.484Z,61.99
2018-09-21T15:57:54.026Z,65.12
2018-09-21T16:00:27.809Z,66.15
2018-09-21T16:03:00.574Z,67.12
2018-09-21T16:05:33.532Z,67.76
2018-09-21T16:08:03.554Z,66.98
2018-09-21T16:10:35.355Z,68.49
2018-09-21T16:13:14.869Z,68.72
2018-09-21T16:15:48.341Z,69.22
2018-09-21T16:18:20.212Z,68.73
2018-09-21T16:20:56.318Z,70.37
2018-09-21T16:23:28.630Z,69.61
2018-09-21T16:26:00.194Z,67.49
2018-09-21T16:28:32.398Z,68.20
2018-09-21T16:31:02.331Z,67.49
2018-09-21T16:33:32.146Z,67.20
2018-09-21T16:36:02.867Z,67.83
2018-09-21T16:38:32.525Z,67.62
2018-09-21T16:41:02.182Z,66.26
2018-09-21T16:43:39.931Z,67.22
2018-09-21T16:46:09.853Z,65.76
2018-09-21T16:48:40.467Z,64.70
2018-09-21T16:51:10.449Z,67.20
2018-09-21T16:53:43.216Z,67.25
2018-09-21T16:56:13.742Z,69.14
2018-09-21T16:58:45.581Z,69.54
2018-09-21T17:01:15.390Z,71.87
2018-09-21T17:03:47.294Z,71.56
2018-09-21T17:06:21.998Z,74.02
2018-09-21T17:08:55.756Z,73.33
2018-09-21T17:11:26.776Z,75.09
2018-09-21T17:13:58.364Z,74.28
2018-09-21T17:16:28.863Z,74.12
2018-09-21T17:19:00.270Z,75.62
2018-09-21T17:21:30.315Z,75.31
2018-09-21T17:24:01.986Z,76.94
2018-09-21T17:26:33.475Z,77.21
2018-09-21T17:29:04.343Z,79.17
2018-09-21T17:31:37.750Z,77.97
2018-09-21T17:34:13.411Z,78.44
2018-09-21T17:36:46.717Z,78.52
2018-09-21T17:39:18.782Z,79.42
2018-09-21T17:41:50.550Z,81.01
2018-09-21T17:44:27.371Z,80.96
2018-09-21T17:46:57.670Z,78.51
2018-09-21T17:49:28.350Z,79.67
2018-09-21T17:51:58.440Z,80.11
2018-09-21T17:54:28.109Z,79.72
2018-09-21T17:56:58.546Z,81.08
2018-09-21T17:59:30.712Z,79.58
2018-09-21T18:02:01.473Z,79.71
2018-09-21T18:04:31.288Z,80.89
2018-09-21T18:07:02.519Z,80.95
2018-09-21T18:09:32.925Z,80.60
2018-09-21T18:12:04.595Z,80.52
2018-09-21T18:14:35.359Z,79.62
2018-09-21T18:17:06.372Z,80.92
2018-09-21T18:19:37.368Z,79.64
2018-09-21T18:22:07.638Z,81.04
2018-09-21T18:24:38.199Z,79.70
2018-09-21T18:27:09.329Z,81.22
2018-09-21T18:29:40.669Z,80.94
2018-09-21T18:32:12.376Z,81.43
2018-09-21T18:34:44.576Z,80.75
2018-09-21T18:37:16.424Z,81.67
2018-09-21T18:39:46.816Z,82.07
2018-09-21T18:42:16.680Z,80.72
2018-09-21T18:44:49.766Z,81.49
2018-09-21T18:47:20.278Z,81.41
2018-09-21T18:49:53.562Z,81.94
2018-09-21T18:52:24.447Z,82.67
2018-09-21T18:54:54.990Z,83.07
2018-09-21T18:57:25.474Z,82.77
2018-09-21T18:59:56.393Z,82.54
2018-09-21T19:02:27.871Z,81.97
2018-09-21T19:04:59.374Z,83.58
2018-09-21T19:07:32.297Z,82.09
2018-09-21T19:10:02.671Z,82.70
2018-09-21T19:12:33.272Z,83.34
2018-09-21T19:15:05.997Z,83.59
2018-09-21T19:17:37.578Z,83.50
2018-09-21T19:20:12.819Z,83.63
2018-09-21T19:22:48.318Z,80.83
2018-09-21T19:25:21.238Z,82.25
2018-09-21T19:27:53.269Z,81.75
2018-09-21T19:30:25.485Z,80.30
2018-09-21T19:32:55.534Z,81.70
2018-09-21T19:35:28.850Z,81.52
2018-09-21T19:38:00.233Z,81.71
2018-09-21T19:40:31.898Z,81.39
2018-09-21T19:43:04.713Z,81.40
2018-09-21T19:45:38.328Z,80.99
2018-09-21T19:48:12.331Z,80.93
2018-09-21T19:50:43.038Z,81.78
2018-09-21T19:53:15.470Z,81.20
2018-09-21T19:55:46.856Z,82.29
2018-09-21T19:58:18.056Z,81.61
2018-09-21T20:00:49.345Z,82.62
2018-09-21T20:03:22.753Z,81.61
2018-09-21T20:08:35.972Z,83.01
2018-09-21T20:11:06.475Z,82.53
2018-09-21T20:13:39.145Z,82.69
2018-09-21T20:16:09.978Z,81.94
2018-09-21T20:18:43.145Z,83.16
2018-09-21T20:21:15.710Z,82.42
2018-09-21T20:23:49.040Z,82.47
2018-09-21T20:26:20.272Z,81.19
2018-09-21T20:28:50.441Z,81.32
2018-09-21T20:31:26.738Z,81.22
2018-09-21T20:33:58.955Z,81.87
2018-09-21T20:36:31.307Z,81.23
2018-09-21T20:39:02.488Z,80.51
2018-09-21T20:41:33.405Z,80.96
2018-09-21T20:44:04.420Z,80.75
2018-09-21T20:46:35.917Z,79.36
2018-09-21T20:49:08.480Z,79.80
2018-09-21T20:51:40.941Z,79.62
2018-09-21T20:54:12.533Z,80.05
2018-09-21T20:56:45.192Z,80.07
2018-09-21T20:59:15.384Z,80.79
2018-09-21T21:01:51.987Z,79.52
2018-09-21T21:04:22.749Z,80.38
2018-09-21T21:06:53.545Z,79.59
2018-09-21T21:09:23.443Z,78.81
2018-09-21T21:11:54.694Z,78.65
2018-09-21T21:14:29.657Z,79.37
2018-09-21T21:17:00.397Z,78.26
2018-09-21T21:19:32.090Z,79.10
2018-09-21T21:22:02.329Z,79.01
2018-09-21T21:24:34.734Z,78.93
2018-09-21T21:27:06.850Z,78.02
2018-09-21T21:29:36.502Z,78.78
2018-09-21T21:32:06.162Z,78.23
2018-09-21T21:34:36.404Z,76.97
2018-09-21T21:37:08.160Z,77.70
2018-09-21T21:39:39.321Z,77.79
2018-09-21T21:42:09.848Z,78.69
2018-09-21T21:44:39.937Z,78.04
2018-09-21T21:47:11.411Z,79.16
2018-09-21T21:49:42.505Z,78.33
2018-09-21T21:52:15.332Z,79.12
2018-09-21T21:54:46.022Z,79.32
2018-09-21T21:57:19.410Z,78.40
2018-09-21T21:59:50.759Z,79.00
2018-09-21T22:02:21.523Z,78.69
2018-09-21T22:04:51.153Z,77.63
2018-09-21T22:07:20.795Z,77.87
2018-09-21T22:09:50.454Z,76.91
2018-09-21T22:14:26.559Z,78.41
2018-09-21T22:16:58.218Z,78.12
2018-09-21T22:19:28.986Z,78.99
2018-09-21T22:21:59.774Z,77.10
2018-09-21T22:24:29.393Z,76.60
2018-09-21T22:26:59.277Z,78.49
2018-09-21T22:29:29.757Z,77.46
2018-09-21T22:31:59.490Z,78.44
2018-09-21T22:34:29.986Z,78.41
2018-09-21T22:37:00.833Z,77.22
2018-09-21T22:39:30.489Z,78.41
2018-09-21T22:42:00.204Z,78.48
2018-09-21T22:44:31.484Z,78.32
2018-09-21T22:47:01.802Z,77.65
2018-09-21T22:49:31.933Z,77.99
2018-09-21T22:52:01.570Z,78.05
2018-09-21T22:54:31.255Z,78.12
2018-09-21T22:57:02.624Z,76.34
2018-09-21T22:59:32.277Z,77.59
2018-09-21T23:02:02.508Z,77.76
2018-09-21T23:04:32.610Z,77.01
2018-09-21T23:07:03.881Z,76.90
2018-09-21T23:09:33.498Z,78.06
2018-09-21T23:12:03.657Z,77.06
2018-09-21T23:14:35.834Z,77.43
2018-09-21T23:17:06.099Z,77.50
2018-09-21T23:19:36.248Z,78.22
2018-09-21T23:22:06.391Z,76.99
2018-09-21T23:24:37.380Z,77.30
2018-09-21T23:27:07.035Z,77.69
2018-09-21T23:29:37.009Z,77.51
2018-09-21T23:32:06.289Z,77.53
2018-09-21T23:34:36.245Z,77.11
2018-09-21T23:37:07.959Z,77.13
2018-09-21T23:39:37.629Z,76.81
2018-09-21T23:42:07.279Z,77.21
2018-09-21T23:44:37.427Z,77.32
2018-09-21T23:47:07.107Z,77.49
2018-09-21T23:49:36.801Z,77.49
2018-09-21T23:52:07.038Z,77.75
2018-09-21T23:54:36.657Z,77.55
2018-09-21T23:57:06.275Z,78.32
2018-09-21T23:59:36.282Z,78.32
